Gardo Airport


Codes: HCMG/GSR
Name: Gardo Airport
City: Gardo
Country: Somalia
Elevation: 2632 ft.

Photos at Gardo Airport


   Photos courtesy of SpottingLog. You can add your own sightings and photos by signing up for a free trial today.



No photos found.

Weather at Gardo Airport


Time (UTC)DescriptionTempratureWindCloud coverageVisibilityPressureHumidity
16-Jun-2024 03:00Broken Clouds26°C18 mph, SW78%10000m1009hPa47%
16-Jun-2024 06:00Broken Clouds28°C25 mph, W80%10000m1009hPa40%
16-Jun-2024 09:00Scattered Clouds33°C22 mph, SW50%10000m1008hPa25%
16-Jun-2024 12:00Scattered Clouds35°C18 mph, SW29%10000m1006hPa20%
16-Jun-2024 15:00Clear Sky32°C16 mph, SW3%10000m1007hPa22%
16-Jun-2024 18:00Clear Sky30°C16 mph, SW5%10000m1008hPa30%
16-Jun-2024 21:00Broken Clouds28°C20 mph, SW74%10000m1008hPa37%
17-Jun-2024 00:00Broken Clouds25°C20 mph, SW81%10000m1008hPa43%
17-Jun-2024 03:00Overcast Clouds25°C22 mph, SW99%10000m1010hPa45%
17-Jun-2024 06:00Overcast Clouds28°C29 mph, SW100%10000m1012hPa40%
17-Jun-2024 09:00Overcast Clouds32°C27 mph, SW99%10000m1009hPa31%
17-Jun-2024 12:00Overcast Clouds34°C25 mph, SW89%10000m1007hPa28%
17-Jun-2024 15:00Overcast Clouds32°C20 mph, SW88%10000m1008hPa32%
17-Jun-2024 18:00Broken Clouds29°C22 mph, SW57%10000m1009hPa34%
17-Jun-2024 21:00Overcast Clouds28°C20 mph, SW96%10000m1008hPa38%
18-Jun-2024 00:00Overcast Clouds26°C22 mph, SW96%10000m1008hPa45%
18-Jun-2024 03:00Broken Clouds25°C22 mph, SW82%10000m1011hPa53%
18-Jun-2024 06:00Broken Clouds28°C29 mph, SW79%10000m1011hPa46%
18-Jun-2024 09:00Overcast Clouds32°C29 mph, SW92%10000m1009hPa34%
18-Jun-2024 12:00Broken Clouds34°C25 mph, SW76%10000m1007hPa29%
18-Jun-2024 15:00Broken Clouds32°C20 mph, SW57%10000m1008hPa32%
18-Jun-2024 18:00Broken Clouds30°C20 mph, SW60%10000m1010hPa36%
18-Jun-2024 21:00Overcast Clouds28°C22 mph, SW91%10000m1009hPa39%
19-Jun-2024 00:00Overcast Clouds26°C22 mph, SW91%10000m1009hPa46%
19-Jun-2024 03:00Scattered Clouds24°C22 mph, SW47%10000m1010hPa61%
19-Jun-2024 06:00Scattered Clouds29°C29 mph, SW27%10000m1011hPa46%
19-Jun-2024 09:00Scattered Clouds33°C27 mph, SW41%10000m1008hPa32%
19-Jun-2024 12:00Broken Clouds35°C25 mph, SW63%10000m1006hPa27%
19-Jun-2024 15:00Broken Clouds32°C18 mph, SW52%10000m1006hPa30%
19-Jun-2024 18:00Broken Clouds30°C16 mph, SW53%10000m1008hPa34%
19-Jun-2024 21:00Scattered Clouds28°C18 mph, SW49%10000m1009hPa42%
20-Jun-2024 00:00Scattered Clouds24°C22 mph, SW33%10000m1009hPa68%
20-Jun-2024 03:00Clear Sky23°C22 mph, SW2%10000m1011hPa77%
20-Jun-2024 06:00Clear Sky28°C31 mph, SW2%10000m1011hPa51%
20-Jun-2024 09:00Clear Sky33°C29 mph, SW3%10000m1009hPa35%
20-Jun-2024 12:00Clear Sky35°C27 mph, SW5%10000m1006hPa30%
20-Jun-2024 15:00Clear Sky33°C20 mph, SW8%10000m1007hPa32%
20-Jun-2024 18:00Clear Sky30°C22 mph, SW9%10000m1008hPa37%
20-Jun-2024 21:00Few Clouds28°C25 mph, SW14%10000m1009hPa45%
21-Jun-2024 00:00Few Clouds25°C27 mph, SW20%10000m1009hPa59%